createdAt,value
2023-05-07T00:01:06.886Z,2.87
2023-05-07T00:03:34.955Z,2.77
2023-05-07T00:06:03.105Z,2.83
2023-05-07T00:08:31.150Z,2.81
2023-05-07T00:10:59.012Z,2.80
2023-05-07T00:13:27.091Z,2.77
2023-05-07T00:15:55.091Z,2.74
2023-05-07T00:18:24.395Z,2.66
2023-05-07T00:20:52.299Z,2.67
2023-05-07T00:23:20.238Z,2.65
2023-05-07T00:25:48.108Z,2.56
2023-05-07T00:28:16.152Z,2.56
2023-05-07T00:30:44.043Z,2.59
2023-05-07T00:33:11.983Z,2.59
2023-05-07T00:35:41.548Z,2.56
2023-05-07T00:38:09.489Z,2.53
2023-05-07T00:40:37.332Z,2.52
2023-05-07T00:43:05.209Z,2.51
2023-05-07T00:45:33.187Z,2.48
2023-05-07T00:48:02.589Z,2.47
2023-05-07T00:50:31.405Z,2.42
2023-05-07T00:53:01.101Z,2.42
2023-05-07T00:55:29.140Z,2.47
2023-05-07T00:57:57.223Z,2.43
2023-05-07T01:00:26.265Z,2.34
2023-05-07T01:02:54.301Z,2.40
2023-05-07T01:05:25.431Z,2.41
2023-05-07T01:07:56.194Z,2.41
2023-05-07T01:10:26.552Z,1.88
2023-05-07T01:12:55.926Z,2.37
2023-05-07T01:15:23.949Z,2.37
2023-05-07T01:17:51.825Z,2.36
2023-05-07T01:20:20.811Z,2.36
2023-05-07T01:22:51.273Z,2.38
2023-05-07T01:25:19.656Z,2.32
2023-05-07T01:27:47.695Z,2.34
2023-05-07T01:30:15.975Z,2.33
2023-05-07T01:32:47.550Z,2.30
2023-05-07T01:35:20.707Z,2.26
2023-05-07T01:37:51.290Z,1.35
2023-05-07T01:40:19.641Z,2.21
2023-05-07T01:42:49.362Z,2.20
2023-05-07T01:45:17.238Z,2.02
2023-05-07T01:47:46.014Z,2.02
2023-05-07T01:50:14.956Z,2.19
2023-05-07T01:52:43.081Z,2.18
2023-05-07T01:55:12.689Z,2.14
2023-05-07T01:57:41.030Z,2.05
2023-05-07T02:00:10.280Z,2.08
2023-05-07T02:02:39.321Z,2.04
2023-05-07T02:05:08.178Z,2.08
2023-05-07T02:07:36.288Z,1.75
2023-05-07T02:10:05.063Z,2.12
2023-05-07T02:12:34.399Z,2.14
2023-05-07T02:15:02.661Z,2.09
2023-05-07T02:17:32.878Z,2.13
2023-05-07T02:20:00.985Z,2.14
2023-05-07T02:22:28.862Z,2.09
2023-05-07T02:24:56.886Z,2.15
2023-05-07T02:27:24.871Z,2.15
2023-05-07T02:29:54.091Z,2.14
2023-05-07T02:32:22.145Z,2.13
2023-05-07T02:34:53.381Z,2.15
2023-05-07T02:37:21.193Z,2.14
2023-05-07T02:39:49.132Z,2.13
2023-05-07T02:42:17.036Z,2.12
2023-05-07T02:44:44.874Z,2.07
2023-05-07T02:47:16.368Z,2.12
2023-05-07T02:49:44.234Z,2.12
2023-05-07T02:52:12.044Z,2.12
2023-05-07T02:54:39.915Z,2.09
2023-05-07T02:57:07.798Z,2.13
2023-05-07T02:59:35.671Z,2.07
2023-05-07T03:02:03.578Z,2.13
2023-05-07T03:04:32.918Z,2.12
2023-05-07T03:07:00.758Z,2.10
2023-05-07T03:09:28.716Z,2.09
2023-05-07T03:11:56.786Z,2.09
2023-05-07T03:14:24.710Z,2.07
2023-05-07T03:16:52.669Z,2.09
2023-05-07T03:19:20.586Z,1.97
2023-05-07T03:21:49.895Z,2.10
2023-05-07T03:24:17.905Z,2.12
2023-05-07T03:26:45.917Z,2.13
2023-05-07T03:29:13.761Z,2.18
2023-05-07T03:31:41.718Z,2.19
2023-05-07T03:34:09.681Z,2.25
2023-05-07T03:36:37.549Z,2.28
2023-05-07T03:39:06.874Z,2.30
2023-05-07T03:41:35.076Z,2.32
2023-05-07T03:44:02.903Z,2.34
2023-05-07T03:46:30.915Z,2.38
2023-05-07T03:48:58.817Z,2.42
2023-05-07T03:51:26.793Z,2.43
2023-05-07T03:53:54.793Z,2.51
2023-05-07T03:56:24.207Z,2.56
2023-05-07T03:58:52.068Z,2.60
2023-05-07T04:01:20.021Z,2.63
2023-05-07T04:03:48.430Z,2.66
2023-05-07T04:06:18.228Z,2.71
2023-05-07T04:08:46.169Z,2.75
2023-05-07T04:11:14.114Z,2.68
2023-05-07T04:13:43.399Z,2.82
2023-05-07T04:16:11.362Z,2.88
2023-05-07T04:18:39.514Z,2.94
2023-05-07T04:21:07.690Z,3.01
2023-05-07T04:23:35.588Z,3.06
2023-05-07T04:26:04.290Z,3.14
2023-05-07T04:28:32.162Z,3.20
2023-05-07T04:31:01.416Z,3.23
2023-05-07T04:33:29.360Z,3.21
2023-05-07T04:35:57.541Z,3.38
2023-05-07T04:38:25.604Z,3.44
2023-05-07T04:40:53.516Z,3.23
2023-05-07T04:43:21.795Z,3.56
2023-05-07T04:45:50.385Z,3.63
2023-05-07T04:48:20.422Z,3.70
2023-05-07T04:50:50.299Z,3.78
2023-05-07T04:53:18.746Z,3.85
2023-05-07T04:55:47.177Z,3.78
2023-05-07T04:58:15.481Z,4.01
2023-05-07T05:00:43.481Z,3.97
2023-05-07T05:03:12.338Z,4.19
2023-05-07T05:05:41.728Z,4.26
2023-05-07T05:08:10.897Z,4.41
2023-05-07T05:10:38.827Z,4.51
2023-05-07T05:13:07.157Z,4.59
2023-05-07T05:15:38.294Z,4.61
2023-05-07T05:18:06.425Z,4.65
2023-05-07T05:20:34.632Z,4.54
2023-05-07T05:23:03.837Z,4.73
2023-05-07T05:25:31.752Z,4.81
2023-05-07T05:28:00.100Z,4.84
2023-05-07T05:30:27.965Z,4.90
2023-05-07T05:32:56.066Z,4.93
2023-05-07T05:35:23.984Z,4.87
2023-05-07T05:37:51.892Z,5.00
2023-05-07T05:40:23.011Z,5.05
2023-05-07T05:42:51.159Z,5.05
2023-05-07T05:45:18.987Z,5.13
2023-05-07T05:47:48.300Z,5.19
2023-05-07T05:50:16.302Z,5.18
2023-05-07T05:52:44.217Z,5.31
2023-05-07T05:55:12.326Z,5.34
2023-05-07T05:57:41.720Z,5.42
2023-05-07T06:00:12.158Z,5.47
2023-05-07T06:02:40.408Z,5.47
2023-05-07T06:05:09.291Z,5.48
2023-05-07T06:07:37.177Z,5.43
2023-05-07T06:10:05.623Z,5.55
2023-05-07T06:12:33.836Z,5.61
2023-05-07T06:15:03.530Z,5.66
2023-05-07T06:17:31.760Z,5.68
2023-05-07T06:19:59.804Z,5.75
2023-05-07T06:22:27.617Z,5.82
2023-05-07T06:24:55.545Z,5.85
2023-05-07T06:27:23.547Z,5.92
2023-05-07T06:29:51.359Z,5.89
2023-05-07T06:32:22.110Z,5.86
2023-05-07T06:34:50.228Z,5.83
2023-05-07T06:37:18.060Z,5.88
2023-05-07T06:39:45.927Z,5.96
2023-05-07T06:42:13.872Z,5.97
2023-05-07T06:44:41.764Z,6.03
2023-05-07T06:47:09.648Z,6.07
2023-05-07T06:49:39.242Z,6.12
2023-05-07T06:52:07.103Z,6.12
2023-05-07T06:54:35.057Z,6.27
2023-05-07T06:57:03.004Z,6.39
2023-05-07T06:59:30.824Z,6.33
2023-05-07T07:01:58.855Z,6.56
2023-05-07T07:04:27.178Z,6.64
2023-05-07T07:06:57.742Z,6.75
2023-05-07T07:09:25.645Z,6.39
2023-05-07T07:11:53.635Z,7.14
2023-05-07T07:14:21.609Z,7.37
2023-05-07T07:16:49.752Z,7.68
2023-05-07T07:19:17.819Z,8.28
2023-05-07T07:21:46.147Z,8.70
2023-05-07T07:24:20.190Z,8.89
2023-05-07T07:26:48.390Z,9.11
2023-05-07T07:29:16.303Z,9.65
2023-05-07T07:31:44.301Z,10.32
2023-05-07T07:34:12.275Z,11.02
2023-05-07T07:36:46.318Z,11.54
2023-05-07T07:39:16.802Z,11.43
2023-05-07T07:41:44.655Z,11.66
2023-05-07T07:44:16.045Z,11.57
2023-05-07T07:46:44.656Z,11.63
2023-05-07T07:49:12.549Z,12.07
2023-05-07T07:51:40.435Z,12.75
2023-05-07T07:54:08.609Z,13.38
2023-05-07T07:56:37.842Z,14.08
2023-05-07T07:59:08.153Z,14.66
2023-05-07T08:01:36.551Z,14.96
2023-05-07T08:04:06.664Z,14.89
2023-05-07T08:06:34.775Z,14.00
2023-05-07T08:09:03.497Z,14.20
2023-05-07T08:11:31.354Z,14.14
2023-05-07T08:14:01.282Z,13.55
2023-05-07T08:18:58.896Z,13.39
2023-05-07T08:21:27.280Z,13.20
2023-05-07T08:23:55.262Z,13.60
2023-05-07T08:26:23.072Z,14.08
2023-05-07T08:28:51.011Z,14.30
2023-05-07T08:31:20.653Z,14.81
2023-05-07T08:33:52.374Z,15.32
2023-05-07T08:36:20.952Z,15.58
2023-05-07T08:38:52.839Z,16.02
2023-05-07T08:41:28.279Z,15.75
2023-05-07T08:44:00.494Z,14.89
2023-05-07T08:46:33.971Z,14.27
2023-05-07T08:49:04.905Z,14.83
2023-05-07T08:51:33.154Z,15.39
2023-05-07T08:54:03.469Z,15.86
2023-05-07T08:56:31.728Z,15.84
2023-05-07T08:58:59.934Z,15.76
2023-05-07T09:01:29.430Z,16.31
2023-05-07T09:03:57.542Z,16.03
2023-05-07T09:06:25.849Z,15.39
2023-05-07T09:08:55.059Z,15.63
2023-05-07T09:11:24.751Z,15.92
2023-05-07T09:13:56.543Z,16.36
2023-05-07T09:16:24.558Z,16.64
2023-05-07T09:18:56.179Z,16.53
2023-05-07T09:21:24.817Z,16.13
2023-05-07T09:23:53.392Z,16.48
2023-05-07T09:26:24.092Z,16.92
2023-05-07T09:28:52.234Z,17.41
2023-05-07T09:31:21.590Z,16.81
2023-05-07T09:33:49.809Z,16.36
2023-05-07T09:36:20.042Z,16.11
2023-05-07T09:38:48.410Z,15.83
2023-05-07T09:41:16.333Z,16.41
2023-05-07T09:43:44.185Z,17.18
2023-05-07T09:46:15.161Z,17.73
2023-05-07T09:48:44.773Z,17.94
2023-05-07T09:51:23.826Z,18.26
2023-05-07T09:53:54.485Z,18.31
2023-05-07T09:56:25.526Z,18.30
2023-05-07T09:58:56.228Z,18.87
2023-05-07T10:01:25.180Z,19.46
2023-05-07T10:03:54.912Z,19.69
2023-05-07T10:06:27.729Z,19.70
2023-05-07T10:08:56.666Z,19.63
2023-05-07T10:11:25.155Z,19.56
2023-05-07T10:13:55.183Z,19.86
2023-05-07T10:16:23.511Z,19.32
2023-05-07T10:18:52.225Z,19.28
2023-05-07T10:21:21.483Z,19.20
2023-05-07T10:23:52.305Z,18.52
2023-05-07T10:26:23.872Z,18.26
2023-05-07T10:28:57.497Z,17.95
2023-05-07T10:31:46.772Z,17.19
2023-05-07T10:34:21.180Z,17.53
2023-05-07T10:36:49.847Z,17.90
2023-05-07T10:39:21.604Z,18.37
2023-05-07T10:41:50.050Z,18.28
2023-05-07T10:44:28.015Z,17.49
2023-05-07T10:47:12.202Z,17.51
2023-05-07T10:50:25.566Z,17.76
2023-05-07T10:53:27.647Z,17.76
2023-05-07T10:56:28.647Z,17.29
2023-05-07T10:58:56.628Z,17.39
2023-05-07T11:01:59.273Z,17.82
2023-05-07T11:04:28.839Z,17.72
2023-05-07T11:07:26.820Z,17.82
2023-05-07T11:10:05.912Z,18.13
2023-05-07T11:12:57.485Z,18.23
2023-05-07T11:15:40.118Z,18.26
2023-05-07T11:18:08.162Z,17.95
2023-05-07T11:20:53.568Z,18.48
2023-05-07T11:23:59.775Z,18.87
2023-05-07T11:26:29.329Z,18.82
2023-05-07T11:29:01.268Z,19.12
2023-05-07T11:31:31.194Z,19.22
2023-05-07T11:33:59.913Z,19.26
2023-05-07T11:36:33.091Z,20.09
2023-05-07T11:39:01.117Z,19.84
2023-05-07T11:41:36.346Z,18.70
2023-05-07T11:44:05.900Z,17.82
2023-05-07T11:46:34.495Z,17.37
2023-05-07T11:49:03.083Z,16.97
2023-05-07T11:51:31.115Z,17.48
2023-05-07T11:53:58.939Z,17.66
2023-05-07T11:56:26.956Z,18.04
2023-05-07T11:58:54.855Z,18.52
2023-05-07T12:01:24.435Z,18.54
2023-05-07T12:03:52.623Z,18.46
2023-05-07T12:06:21.142Z,18.67
2023-05-07T12:08:49.355Z,18.83
2023-05-07T12:11:24.910Z,18.93
2023-05-07T12:13:53.231Z,18.74
2023-05-07T12:16:21.904Z,19.10
2023-05-07T12:18:53.826Z,19.39
2023-05-07T12:21:21.937Z,19.82
2023-05-07T12:23:50.144Z,20.45
2023-05-07T12:26:18.102Z,20.45
2023-05-07T12:28:46.148Z,20.15
2023-05-07T12:31:16.669Z,18.86
2023-05-07T12:33:44.860Z,18.98
2023-05-07T12:36:15.466Z,19.54
2023-05-07T12:38:43.311Z,19.95
2023-05-07T12:41:13.572Z,19.89
2023-05-07T12:43:41.628Z,19.56
2023-05-07T12:46:10.150Z,19.03
2023-05-07T12:48:39.845Z,18.83
2023-05-07T12:51:11.227Z,19.02
2023-05-07T12:53:44.120Z,18.89
2023-05-07T12:56:12.439Z,18.46
2023-05-07T12:58:40.295Z,19.02
2023-05-07T13:01:11.171Z,19.40
2023-05-07T13:03:40.642Z,19.13
2023-05-07T13:06:10.697Z,19.30
2023-05-07T13:08:41.524Z,19.95
2023-05-07T13:11:12.271Z,19.87
2023-05-07T13:13:41.627Z,19.16
2023-05-07T13:16:12.050Z,19.53
2023-05-07T13:18:41.567Z,19.76
2023-05-07T13:21:11.111Z,19.93
2023-05-07T13:23:39.871Z,20.04
2023-05-07T13:26:22.528Z,20.24
2023-05-07T13:28:55.765Z,18.84
2023-05-07T13:31:23.774Z,18.71
2023-05-07T13:33:51.820Z,19.81
2023-05-07T13:36:19.848Z,20.54
2023-05-07T13:38:48.154Z,19.72
2023-05-07T13:41:16.513Z,19.61
2023-05-07T13:43:44.465Z,20.46
2023-05-07T13:46:14.085Z,20.40
2023-05-07T13:48:42.040Z,20.47
2023-05-07T13:51:10.517Z,20.92
2023-05-07T13:53:38.338Z,21.09
2023-05-07T13:56:07.035Z,21.62
2023-05-07T13:58:42.225Z,22.17
2023-05-07T14:01:17.769Z,21.54
2023-05-07T14:03:46.176Z,21.21
2023-05-07T14:06:14.163Z,21.61
2023-05-07T14:08:42.057Z,22.07
2023-05-07T14:11:10.187Z,22.42
2023-05-07T14:13:38.149Z,22.35
2023-05-07T14:16:06.986Z,22.55
2023-05-07T14:18:38.250Z,22.67
2023-05-07T14:21:07.398Z,22.39
2023-05-07T14:23:35.342Z,22.42
2023-05-07T14:26:03.356Z,22.55
2023-05-07T14:28:31.280Z,22.70
2023-05-07T14:30:59.244Z,23.23
2023-05-07T14:33:27.476Z,23.53
2023-05-07T14:35:56.723Z,23.80
2023-05-07T14:38:24.610Z,24.40
2023-05-07T14:40:53.377Z,24.11
2023-05-07T14:43:21.288Z,23.85
2023-05-07T14:45:49.106Z,23.81
2023-05-07T14:48:20.989Z,23.23
2023-05-07T14:50:49.384Z,22.56
2023-05-07T14:53:18.895Z,22.25
2023-05-07T14:55:46.833Z,22.01
2023-05-07T14:58:14.804Z,21.78
2023-05-07T15:00:43.003Z,21.46
2023-05-07T15:03:12.168Z,20.92
2023-05-07T15:05:40.149Z,20.22
2023-05-07T15:08:08.102Z,20.15
2023-05-07T15:10:42.245Z,20.54
2023-05-07T15:13:14.685Z,20.21
2023-05-07T15:15:45.708Z,20.18
2023-05-07T15:18:13.884Z,19.39
2023-05-07T15:20:42.449Z,18.85
2023-05-07T15:23:13.231Z,18.57
2023-05-07T15:25:42.968Z,18.46
2023-05-07T15:28:10.884Z,18.29
2023-05-07T15:30:38.740Z,18.19
2023-05-07T15:33:06.930Z,18.25
2023-05-07T15:35:34.979Z,18.26
2023-05-07T15:38:04.514Z,18.10
2023-05-07T15:40:32.685Z,17.80
2023-05-07T15:43:02.274Z,17.53
2023-05-07T15:45:30.358Z,17.34
2023-05-07T15:47:58.342Z,17.28
2023-05-07T15:50:26.230Z,16.91
2023-05-07T15:52:54.248Z,16.82
2023-05-07T15:55:22.263Z,16.81
2023-05-07T15:57:50.187Z,16.73
2023-05-07T16:00:20.105Z,17.04
2023-05-07T16:02:48.189Z,17.39
2023-05-07T16:05:16.092Z,17.90
2023-05-07T16:07:44.481Z,17.93
2023-05-07T16:10:13.022Z,17.63
2023-05-07T16:12:40.886Z,17.10
2023-05-07T16:15:09.757Z,17.10
2023-05-07T16:17:39.506Z,16.70
2023-05-07T16:20:09.212Z,16.24
2023-05-07T16:22:37.810Z,16.00
2023-05-07T16:25:06.469Z,15.60
2023-05-07T16:27:34.352Z,15.61
2023-05-07T16:30:02.272Z,16.08
2023-05-07T16:32:30.240Z,16.45
2023-05-07T16:34:59.594Z,16.68
2023-05-07T16:37:27.523Z,16.51
2023-05-07T16:39:56.594Z,16.42
2023-05-07T16:42:24.417Z,16.89
2023-05-07T16:44:52.361Z,16.85
2023-05-07T16:47:20.357Z,16.58
2023-05-07T16:49:48.585Z,16.33
2023-05-07T16:52:18.219Z,16.11
2023-05-07T16:54:46.104Z,15.54
2023-05-07T16:57:14.213Z,15.48
2023-05-07T16:59:42.501Z,15.77
2023-05-07T17:02:10.504Z,15.69
2023-05-07T17:04:38.426Z,15.63
2023-05-07T17:07:06.612Z,15.34
2023-05-07T17:09:35.976Z,15.01
2023-05-07T17:12:03.954Z,14.56
2023-05-07T17:14:31.830Z,14.08
2023-05-07T17:16:59.746Z,13.42
2023-05-07T17:19:27.570Z,13.47
2023-05-07T17:21:55.626Z,12.17
2023-05-07T17:24:23.514Z,12.66
2023-05-07T17:26:52.707Z,12.39
2023-05-07T17:29:21.286Z,11.76
2023-05-07T17:31:49.442Z,11.96
2023-05-07T17:34:17.440Z,11.71
2023-05-07T17:36:46.066Z,11.61
2023-05-07T17:39:13.958Z,11.39
2023-05-07T17:41:41.785Z,11.11
2023-05-07T17:44:11.119Z,11.08
2023-05-07T17:46:39.012Z,10.99
2023-05-07T17:49:06.849Z,10.85
2023-05-07T17:51:49.789Z,10.66
2023-05-07T17:54:21.826Z,10.51
2023-05-07T17:56:49.795Z,10.61
2023-05-07T17:59:19.061Z,10.54
2023-05-07T18:01:47.077Z,10.50
2023-05-07T18:04:15.410Z,10.47
2023-05-07T18:06:43.601Z,10.43
2023-05-07T18:09:11.540Z,10.40
2023-05-07T18:11:39.519Z,10.35
2023-05-07T18:14:07.380Z,10.33
2023-05-07T18:16:36.952Z,10.27
2023-05-07T18:19:04.911Z,10.03
2023-05-07T18:21:32.812Z,10.23
2023-05-07T18:24:00.783Z,10.20
2023-05-07T18:26:28.700Z,10.18
2023-05-07T18:28:56.615Z,10.15
2023-05-07T18:31:24.833Z,10.11
2023-05-07T18:33:56.015Z,10.02
2023-05-07T18:36:25.034Z,9.90
2023-05-07T18:38:53.674Z,9.58
2023-05-07T18:41:21.645Z,9.64
2023-05-07T18:43:49.485Z,9.66
2023-05-07T18:46:17.559Z,9.52
2023-05-07T18:48:45.469Z,9.62
2023-05-07T18:51:14.705Z,9.50
2023-05-07T18:53:42.834Z,9.56
2023-05-07T18:56:10.725Z,9.41
2023-05-07T18:58:38.751Z,9.48
2023-05-07T19:01:08.634Z,9.34
2023-05-07T19:03:36.685Z,9.35
2023-05-07T19:06:05.816Z,9.21
2023-05-07T19:08:35.419Z,9.21
2023-05-07T19:11:03.923Z,9.05
2023-05-07T19:13:31.892Z,9.02
2023-05-07T19:15:59.997Z,9.01
2023-05-07T19:18:29.754Z,9.01
2023-05-07T19:20:57.623Z,8.97
2023-05-07T19:23:26.200Z,8.95
2023-05-07T19:25:55.456Z,8.93
2023-05-07T19:28:23.347Z,8.89
2023-05-07T19:30:52.744Z,8.86
2023-05-07T19:33:20.646Z,8.83
2023-05-07T19:35:48.563Z,8.79
2023-05-07T19:38:16.666Z,8.51
2023-05-07T19:40:44.500Z,8.72
2023-05-07T19:43:13.717Z,8.60
2023-05-07T19:45:43.548Z,8.63
2023-05-07T19:48:11.761Z,8.36
2023-05-07T19:50:39.653Z,8.55
2023-05-07T19:53:07.849Z,7.95
2023-05-07T19:55:35.744Z,8.44
2023-05-07T19:58:03.659Z,8.42
2023-05-07T20:00:34.004Z,8.37
2023-05-07T20:03:02.058Z,8.35
2023-05-07T20:05:29.993Z,8.29
2023-05-07T20:07:58.580Z,8.25
2023-05-07T20:10:26.438Z,8.21
2023-05-07T20:12:54.300Z,8.11
2023-05-07T20:15:23.586Z,8.08
2023-05-07T20:17:52.877Z,8.07
2023-05-07T20:20:21.159Z,8.06
2023-05-07T20:22:49.192Z,8.01
2023-05-07T20:25:17.046Z,7.99
2023-05-07T20:27:44.911Z,7.96
2023-05-07T20:30:14.744Z,7.92
2023-05-07T20:32:43.579Z,7.88
2023-05-07T20:35:13.109Z,7.80
2023-05-07T20:37:41.318Z,7.80
2023-05-07T20:40:10.514Z,7.78
2023-05-07T20:42:38.669Z,7.73
2023-05-07T20:45:08.188Z,7.69
2023-05-07T20:47:36.359Z,7.63
2023-05-07T20:50:04.334Z,7.57
2023-05-07T20:52:33.622Z,7.56
2023-05-07T20:55:01.587Z,7.54
2023-05-07T20:57:29.414Z,7.49
2023-05-07T20:59:57.388Z,7.52
2023-05-07T21:02:25.426Z,7.48
2023-05-07T21:04:54.587Z,7.46
2023-05-07T21:07:22.462Z,7.43
2023-05-07T21:09:51.819Z,7.42
2023-05-07T21:12:19.636Z,7.25
2023-05-07T21:14:47.606Z,7.38
2023-05-07T21:17:15.522Z,7.35
2023-05-07T21:19:44.093Z,7.31
2023-05-07T21:22:12.083Z,7.28
2023-05-07T21:24:41.374Z,7.14
2023-05-07T21:27:10.683Z,7.17
2023-05-07T21:29:38.680Z,7.03
2023-05-07T21:32:06.782Z,7.11
2023-05-07T21:34:35.273Z,7.08
2023-05-07T21:37:03.314Z,7.01
2023-05-07T21:39:31.576Z,6.98
2023-05-07T21:41:59.460Z,6.95
2023-05-07T21:44:29.918Z,6.92
2023-05-07T21:46:57.907Z,6.87
2023-05-07T21:49:25.856Z,6.83
2023-05-07T21:51:53.827Z,6.82
2023-05-07T21:54:21.739Z,6.75
2023-05-07T21:56:50.206Z,6.63
2023-05-07T21:59:18.338Z,6.75
2023-05-07T22:01:47.669Z,6.58
2023-05-07T22:04:15.556Z,6.69
2023-05-07T22:06:43.523Z,6.69
2023-05-07T22:09:11.869Z,6.64
2023-05-07T22:11:39.776Z,6.59
2023-05-07T22:14:07.684Z,6.54
2023-05-07T22:16:35.791Z,6.51
2023-05-07T22:19:05.149Z,6.43
2023-05-07T22:21:33.087Z,6.42
2023-05-07T22:24:01.052Z,6.46
2023-05-07T22:26:28.955Z,6.45
2023-05-07T22:28:56.883Z,6.40
2023-05-07T22:31:24.941Z,6.42
2023-05-07T22:33:52.791Z,6.39
2023-05-07T22:36:22.069Z,6.30
2023-05-07T22:38:50.013Z,5.38
2023-05-07T22:41:17.905Z,6.30
2023-05-07T22:43:45.891Z,6.23
2023-05-07T22:46:14.037Z,6.25
2023-05-07T22:48:41.885Z,6.24
2023-05-07T22:51:13.978Z,6.22
2023-05-07T22:53:43.341Z,6.18
2023-05-07T22:56:11.332Z,6.03
2023-05-07T22:58:39.436Z,6.12
2023-05-07T23:01:13.369Z,6.01
2023-05-07T23:03:41.369Z,5.99
2023-05-07T23:06:09.782Z,6.03
2023-05-07T23:08:37.673Z,6.02
2023-05-07T23:11:07.520Z,6.00
2023-05-07T23:13:35.451Z,5.98
2023-05-07T23:16:03.364Z,5.86
2023-05-07T23:18:32.683Z,5.95
2023-05-07T23:21:00.646Z,5.91
2023-05-07T23:23:33.706Z,5.88
2023-05-07T23:26:01.762Z,5.73
2023-05-07T23:28:31.013Z,5.85
2023-05-07T23:30:58.940Z,5.77
2023-05-07T23:33:26.984Z,5.79
2023-05-07T23:36:00.435Z,5.79
2023-05-07T23:38:28.619Z,5.75
2023-05-07T23:40:56.746Z,5.73
2023-05-07T23:43:25.026Z,5.70
2023-05-07T23:45:54.422Z,5.68
2023-05-07T23:48:22.339Z,5.66
2023-05-07T23:50:50.266Z,5.55
2023-05-07T23:53:18.169Z,5.52
2023-05-07T23:55:45.998Z,5.63
2023-05-07T23:58:14.218Z,5.64
